createdAt,value
2019-03-19T00:00:47.917Z,5.59
2019-03-19T00:03:18.127Z,5.52
2019-03-19T00:05:48.182Z,5.68
2019-03-19T00:08:18.220Z,5.57
2019-03-19T00:10:48.262Z,5.59
2019-03-19T00:13:18.827Z,5.42
2019-03-19T00:15:48.919Z,5.43
2019-03-19T00:18:18.975Z,5.22
2019-03-19T00:20:49.013Z,5.16
2019-03-19T00:23:18.992Z,5.31
2019-03-19T00:25:49.010Z,5.32
2019-03-19T00:28:19.012Z,5.42
2019-03-19T00:30:49.003Z,5.48
2019-03-19T00:33:18.992Z,5.21
2019-03-19T00:35:48.956Z,5.25
2019-03-19T00:38:18.996Z,5.14
2019-03-19T00:40:48.954Z,5.21
2019-03-19T00:43:18.943Z,5.18
2019-03-19T00:45:48.909Z,5.28
2019-03-19T00:48:18.895Z,5.16
2019-03-19T00:50:48.879Z,5.16
2019-03-19T00:53:18.884Z,5.13
2019-03-19T00:56:08.477Z,5.25
2019-03-19T00:58:38.473Z,5.19
2019-03-19T01:01:08.442Z,5.27
2019-03-19T01:03:38.458Z,5.17
2019-03-19T01:06:08.491Z,5.16
2019-03-19T01:08:38.551Z,5.18
2019-03-19T01:11:08.540Z,5.19
2019-03-19T01:13:38.538Z,5.19
2019-03-19T01:16:08.632Z,5.18
2019-03-19T01:18:38.703Z,5.16
2019-03-19T01:21:08.729Z,5.25
2019-03-19T01:23:38.740Z,5.35
2019-03-19T01:26:08.842Z,5.29
2019-03-19T01:28:38.861Z,5.26
2019-03-19T01:31:09.189Z,5.18
2019-03-19T01:33:39.267Z,5.25
2019-03-19T01:36:09.391Z,5.21
2019-03-19T01:38:39.547Z,5.23
2019-03-19T01:41:09.619Z,5.29
2019-03-19T01:43:39.670Z,5.32
2019-03-19T01:46:09.794Z,5.22
2019-03-19T01:48:39.824Z,5.28
2019-03-19T01:51:09.923Z,5.22
2019-03-19T01:53:39.999Z,5.13
2019-03-19T01:56:10.086Z,5.16
2019-03-19T01:58:40.153Z,5.09
2019-03-19T02:01:10.267Z,5.29
2019-03-19T02:03:40.345Z,5.19
2019-03-19T02:06:11.424Z,5.18
2019-03-19T02:08:41.493Z,5.13
2019-03-19T02:11:11.611Z,5.05
2019-03-19T02:13:41.618Z,5.15
2019-03-19T02:16:11.657Z,4.84
2019-03-19T02:18:41.669Z,4.96
2019-03-19T02:21:11.687Z,5.14
2019-03-19T02:23:41.711Z,5.11
2019-03-19T02:26:16.503Z,4.99
2019-03-19T02:28:43.494Z,5.14
2019-03-19T02:31:13.532Z,5.19
2019-03-19T02:33:43.552Z,5.02
2019-03-19T02:36:13.556Z,5.07
2019-03-19T02:38:43.541Z,5.18
2019-03-19T02:41:13.585Z,5.11
2019-03-19T02:43:43.591Z,4.97
2019-03-19T02:46:13.611Z,5.07
2019-03-19T02:48:43.612Z,5.21
2019-03-19T02:51:13.641Z,5.17
2019-03-19T02:53:43.653Z,5.15
2019-03-19T02:56:13.703Z,5.15
2019-03-19T02:58:43.794Z,5.08
2019-03-19T03:01:13.895Z,5.17
2019-03-19T03:03:43.949Z,5.00
2019-03-19T03:06:14.016Z,5.13
2019-03-19T03:08:44.090Z,4.99
2019-03-19T03:11:14.109Z,5.01
2019-03-19T03:13:44.172Z,5.06
2019-03-19T03:16:14.219Z,5.03
2019-03-19T03:18:44.203Z,5.01
2019-03-19T03:21:14.223Z,5.03
2019-03-19T03:23:44.221Z,4.94
2019-03-19T03:26:14.222Z,5.00
2019-03-19T03:28:44.287Z,4.86
2019-03-19T03:31:14.341Z,5.02
2019-03-19T03:33:44.369Z,5.04
2019-03-19T03:36:14.448Z,4.86
2019-03-19T03:38:44.508Z,4.94
2019-03-19T03:41:14.570Z,4.95
2019-03-19T03:43:44.589Z,4.91
2019-03-19T03:46:14.601Z,4.75
2019-03-19T03:48:44.604Z,4.88
2019-03-19T03:51:14.632Z,4.95
2019-03-19T03:53:44.634Z,5.05
2019-03-19T03:56:14.870Z,4.98
2019-03-19T03:58:59.593Z,5.10
2019-03-19T04:01:16.655Z,4.87
2019-03-19T04:03:46.655Z,4.88
2019-03-19T04:06:18.235Z,4.93
2019-03-19T04:08:48.281Z,4.92
2019-03-19T04:11:18.296Z,4.98
2019-03-19T04:13:48.305Z,4.93
2019-03-19T04:16:18.340Z,4.91
2019-03-19T04:18:49.450Z,4.68
2019-03-19T04:21:19.543Z,4.68
2019-03-19T04:23:49.611Z,4.70
2019-03-19T04:26:19.657Z,4.87
2019-03-19T04:28:52.168Z,4.79
2019-03-19T04:31:22.232Z,4.68
2019-03-19T04:33:52.224Z,4.80
2019-03-19T04:36:22.247Z,4.73
2019-03-19T04:38:52.269Z,4.69
2019-03-19T04:41:22.337Z,4.75
2019-03-19T04:43:52.363Z,4.76
2019-03-19T04:46:22.416Z,4.66
2019-03-19T04:48:52.456Z,4.65
2019-03-19T04:51:22.504Z,4.60
2019-03-19T04:53:52.894Z,4.65
2019-03-19T04:56:22.935Z,4.78
2019-03-19T04:58:53.060Z,4.96
2019-03-19T05:01:23.188Z,4.95
2019-03-19T05:03:53.176Z,4.89
2019-03-19T05:06:23.216Z,4.93
2019-03-19T05:08:53.262Z,4.79
2019-03-19T05:11:23.319Z,4.78
2019-03-19T05:13:53.399Z,4.85
2019-03-19T05:16:23.426Z,4.90
2019-03-19T05:18:53.458Z,4.91
2019-03-19T05:21:23.438Z,4.70
2019-03-19T05:23:53.484Z,4.79
2019-03-19T05:26:23.504Z,4.64
2019-03-19T05:28:53.572Z,4.60
2019-03-19T05:31:23.582Z,4.70
2019-03-19T05:33:53.628Z,4.56
2019-03-19T05:36:23.618Z,4.66
2019-03-19T05:39:09.323Z,4.53
2019-03-19T05:41:35.935Z,4.48
2019-03-19T05:44:06.036Z,4.59
2019-03-19T05:46:36.088Z,4.45
2019-03-19T05:49:06.140Z,4.43
2019-03-19T05:51:36.154Z,4.46
2019-03-19T05:54:06.207Z,4.44
2019-03-19T05:56:36.684Z,4.49
2019-03-19T05:59:06.700Z,4.58
2019-03-19T06:01:36.733Z,4.62
2019-03-19T06:04:06.800Z,4.52
2019-03-19T06:06:36.837Z,4.50
2019-03-19T06:09:08.791Z,4.53
2019-03-19T06:11:38.848Z,4.53
2019-03-19T06:14:08.863Z,4.50
2019-03-19T06:16:38.877Z,4.51
2019-03-19T06:19:09.013Z,4.59
2019-03-19T06:21:39.036Z,4.63
2019-03-19T06:24:09.981Z,4.74
2019-03-19T06:26:39.994Z,4.71
2019-03-19T06:29:10.062Z,4.75
2019-03-19T06:31:40.081Z,4.84
2019-03-19T06:34:10.101Z,4.80
2019-03-19T06:36:40.093Z,4.67
2019-03-19T06:39:10.134Z,4.90
2019-03-19T06:41:40.142Z,5.04
2019-03-19T06:44:10.249Z,5.16
2019-03-19T06:46:40.261Z,4.94
2019-03-19T06:49:10.305Z,5.09
2019-03-19T06:51:40.347Z,5.26
2019-03-19T06:54:10.370Z,5.22
2019-03-19T06:56:40.414Z,5.03
2019-03-19T06:59:10.431Z,5.05
2019-03-19T07:01:40.431Z,4.95
2019-03-19T07:04:10.647Z,4.79
2019-03-19T07:06:40.663Z,4.85
2019-03-19T07:09:10.734Z,4.88
2019-03-19T07:11:40.777Z,4.90
2019-03-19T07:14:10.847Z,5.05
2019-03-19T07:16:40.857Z,5.13
2019-03-19T07:19:10.898Z,5.05
2019-03-19T07:21:40.977Z,5.07
2019-03-19T07:24:11.015Z,5.26
2019-03-19T07:26:40.989Z,5.30
2019-03-19T07:29:11.078Z,5.22
2019-03-19T07:31:41.091Z,5.21
2019-03-19T07:34:11.132Z,5.24
2019-03-19T07:36:41.149Z,5.15
2019-03-19T07:39:11.192Z,5.20
2019-03-19T07:41:41.234Z,5.19
2019-03-19T07:44:11.251Z,5.18
2019-03-19T07:46:41.241Z,5.38
2019-03-19T07:49:11.277Z,5.43
2019-03-19T07:51:41.334Z,5.44
2019-03-19T07:54:11.391Z,5.44
2019-03-19T07:56:41.436Z,5.42
2019-03-19T07:59:11.467Z,5.48
2019-03-19T08:01:41.559Z,5.62
2019-03-19T08:04:11.562Z,5.41
2019-03-19T08:06:41.639Z,5.43
2019-03-19T08:09:11.699Z,5.50
2019-03-19T08:11:41.721Z,5.55
2019-03-19T08:14:11.841Z,5.66
2019-03-19T08:16:41.926Z,5.68
2019-03-19T08:19:11.991Z,5.77
2019-03-19T08:21:42.009Z,5.62
2019-03-19T08:24:12.127Z,5.67
2019-03-19T08:26:42.319Z,5.67
2019-03-19T08:29:12.435Z,5.67
2019-03-19T08:31:42.396Z,5.85
2019-03-19T08:34:12.518Z,5.91
2019-03-19T08:36:42.617Z,5.96
2019-03-19T08:39:12.689Z,6.03
2019-03-19T08:41:42.808Z,6.13
2019-03-19T08:44:12.910Z,6.12
2019-03-19T08:46:42.995Z,6.26
2019-03-19T08:49:13.044Z,6.13
2019-03-19T08:51:43.087Z,6.34
2019-03-19T08:54:13.203Z,6.32
2019-03-19T08:56:43.246Z,6.38
2019-03-19T08:59:13.292Z,6.51
2019-03-19T09:01:43.320Z,6.68
2019-03-19T09:04:13.354Z,6.66
2019-03-19T09:06:43.387Z,6.61
2019-03-19T09:09:13.463Z,6.78
2019-03-19T09:11:43.483Z,6.87
2019-03-19T09:14:13.566Z,6.65
2019-03-19T09:16:44.466Z,6.86
2019-03-19T09:19:14.510Z,6.61
2019-03-19T09:21:44.548Z,6.79
2019-03-19T09:24:14.596Z,6.90
2019-03-19T09:26:44.614Z,6.92
2019-03-19T09:29:17.205Z,6.82
2019-03-19T09:31:46.407Z,6.85
2019-03-19T09:34:16.459Z,6.86
2019-03-19T09:36:56.747Z,6.88
2019-03-19T09:39:18.207Z,7.10
2019-03-19T09:41:48.228Z,7.15
2019-03-19T09:44:18.362Z,7.24
2019-03-19T09:46:48.466Z,7.34
2019-03-19T09:49:18.486Z,7.17
2019-03-19T09:51:48.488Z,7.42
2019-03-19T09:54:18.514Z,7.52
2019-03-19T09:56:48.565Z,7.38
2019-03-19T09:59:26.835Z,7.23
2019-03-19T10:01:50.288Z,7.20
2019-03-19T10:04:20.400Z,7.14
2019-03-19T10:06:50.451Z,7.13
2019-03-19T10:09:20.470Z,7.23
2019-03-19T10:11:50.510Z,7.21
2019-03-19T10:14:20.534Z,7.27
2019-03-19T10:16:50.584Z,7.25
2019-03-19T10:19:20.640Z,7.39
2019-03-19T10:21:50.702Z,7.43
2019-03-19T10:24:20.726Z,7.49
2019-03-19T10:26:50.832Z,7.73
2019-03-19T10:29:20.875Z,7.73
2019-03-19T10:31:50.942Z,7.74
2019-03-19T10:34:20.981Z,7.84
2019-03-19T10:36:51.092Z,7.52
2019-03-19T10:39:21.094Z,7.66
2019-03-19T10:41:51.153Z,7.68
2019-03-19T10:44:21.233Z,7.80
2019-03-19T10:46:51.275Z,7.86
2019-03-19T10:49:21.310Z,7.91
2019-03-19T10:51:51.385Z,7.82
2019-03-19T10:54:21.445Z,8.09
2019-03-19T10:56:51.515Z,8.08
2019-03-19T10:59:21.720Z,8.18
2019-03-19T11:01:51.781Z,8.08
2019-03-19T11:04:21.854Z,8.02
2019-03-19T11:06:51.943Z,8.14
2019-03-19T11:09:21.981Z,8.06
2019-03-19T11:11:52.032Z,8.20
2019-03-19T11:14:22.075Z,8.16
2019-03-19T11:16:52.119Z,8.09
2019-03-19T11:19:22.160Z,8.22
2019-03-19T11:21:52.231Z,8.39
2019-03-19T11:24:22.310Z,8.03
2019-03-19T11:26:52.536Z,8.08
2019-03-19T11:29:22.658Z,8.18
2019-03-19T11:31:52.724Z,8.20
2019-03-19T11:34:22.748Z,8.16
2019-03-19T11:36:57.801Z,8.34
2019-03-19T11:39:24.617Z,8.16
2019-03-19T11:41:54.664Z,8.16
2019-03-19T11:44:24.673Z,8.13
2019-03-19T11:46:54.726Z,8.00
2019-03-19T11:49:24.764Z,8.22
2019-03-19T11:51:54.810Z,8.24
2019-03-19T11:54:24.837Z,8.31
2019-03-19T11:56:54.978Z,8.59
2019-03-19T11:59:24.995Z,8.65
2019-03-19T12:01:55.127Z,8.92
2019-03-19T12:04:25.212Z,9.02
2019-03-19T12:06:55.273Z,8.94
2019-03-19T12:09:25.326Z,8.79
2019-03-19T12:11:55.405Z,8.66
2019-03-19T12:14:25.485Z,8.46
2019-03-19T12:16:55.702Z,8.87
2019-03-19T12:19:25.807Z,8.98
2019-03-19T12:21:55.907Z,9.21
2019-03-19T12:24:26.001Z,9.10
2019-03-19T12:26:56.039Z,9.24
2019-03-19T12:29:26.125Z,9.33
2019-03-19T12:31:56.204Z,9.25
2019-03-19T12:34:26.265Z,9.12
2019-03-19T12:36:56.331Z,9.15
2019-03-19T12:39:26.339Z,9.10
2019-03-19T12:41:56.407Z,9.26
2019-03-19T12:44:26.450Z,9.39
2019-03-19T12:46:56.499Z,9.55
2019-03-19T12:49:26.635Z,9.53
2019-03-19T12:51:56.687Z,9.45
2019-03-19T12:54:26.723Z,9.53
2019-03-19T12:56:56.857Z,9.72
2019-03-19T12:59:26.891Z,9.63
2019-03-19T13:01:56.979Z,9.93
2019-03-19T13:04:26.986Z,9.69
2019-03-19T13:06:57.121Z,9.71
2019-03-19T13:09:27.283Z,9.44
2019-03-19T13:11:57.331Z,9.62
2019-03-19T13:14:27.353Z,9.67
2019-03-19T13:16:57.365Z,9.62
2019-03-19T13:19:27.449Z,9.96
2019-03-19T13:21:57.533Z,9.88
2019-03-19T13:24:27.601Z,9.94
2019-03-19T13:26:57.659Z,9.90
2019-03-19T13:29:27.833Z,9.72
2019-03-19T13:31:57.865Z,9.48
2019-03-19T13:34:27.957Z,9.35
2019-03-19T13:36:58.621Z,9.28
2019-03-19T13:39:28.915Z,9.18
2019-03-19T13:41:59.104Z,9.51
2019-03-19T13:44:29.242Z,9.43
2019-03-19T13:46:59.435Z,9.41
2019-03-19T13:49:29.495Z,9.39
2019-03-19T13:51:59.510Z,9.39
2019-03-19T13:54:29.644Z,9.55
2019-03-19T13:56:59.843Z,9.66
2019-03-19T13:59:29.957Z,9.74
2019-03-19T14:02:07.966Z,9.79
2019-03-19T14:04:38.019Z,9.94
2019-03-19T14:07:08.069Z,9.92
2019-03-19T14:09:38.128Z,9.64
2019-03-19T14:12:08.154Z,9.48
2019-03-19T14:14:38.174Z,9.56
2019-03-19T14:17:08.232Z,9.52
2019-03-19T14:19:38.274Z,9.66
2019-03-19T14:22:08.332Z,9.81
2019-03-19T14:24:38.419Z,9.73
2019-03-19T14:27:08.559Z,9.70
2019-03-19T14:29:38.638Z,9.73
2019-03-19T14:32:08.668Z,9.91
2019-03-19T14:34:38.717Z,9.78
2019-03-19T14:37:08.743Z,10.01
2019-03-19T14:39:38.818Z,10.07
2019-03-19T14:42:08.850Z,10.09
2019-03-19T14:44:38.875Z,10.27
2019-03-19T14:47:09.026Z,10.12
2019-03-19T14:49:46.647Z,10.02
2019-03-19T14:52:10.902Z,9.99
2019-03-19T14:54:40.918Z,10.01
2019-03-19T14:57:10.976Z,9.99
2019-03-19T14:59:41.032Z,9.94
2019-03-19T15:02:11.148Z,9.86
2019-03-19T15:04:41.182Z,9.97
2019-03-19T15:07:11.257Z,9.96
2019-03-19T15:09:42.085Z,9.87
2019-03-19T15:12:12.126Z,9.76
2019-03-19T15:14:42.234Z,10.12
2019-03-19T15:17:12.301Z,10.10
2019-03-19T15:19:42.386Z,10.33
2019-03-19T15:22:12.438Z,9.98
2019-03-19T15:24:42.536Z,10.16
2019-03-19T15:27:12.636Z,10.12
2019-03-19T15:29:42.740Z,9.81
2019-03-19T15:32:12.878Z,10.00
2019-03-19T15:34:43.008Z,9.89
2019-03-19T15:37:13.062Z,9.88
2019-03-19T15:39:43.122Z,9.86
2019-03-19T15:42:13.179Z,9.75
2019-03-19T15:44:43.280Z,10.05
2019-03-19T15:47:13.348Z,9.92
2019-03-19T15:49:43.440Z,9.90
2019-03-19T15:52:13.472Z,9.73
2019-03-19T15:54:43.610Z,9.74
2019-03-19T15:57:13.660Z,9.79
2019-03-19T15:59:43.712Z,10.09
2019-03-19T16:02:13.720Z,10.03
2019-03-19T16:04:43.827Z,9.99
2019-03-19T16:07:14.394Z,10.02
2019-03-19T16:09:44.758Z,9.83
2019-03-19T16:12:15.029Z,9.51
2019-03-19T16:14:45.124Z,9.32
2019-03-19T16:17:15.185Z,9.09
2019-03-19T16:19:45.240Z,9.13
2019-03-19T16:22:15.431Z,9.27
2019-03-19T16:24:45.542Z,9.44
2019-03-19T16:27:15.756Z,9.52
2019-03-19T16:29:45.838Z,9.52
2019-03-19T16:32:15.861Z,9.52
2019-03-19T16:34:45.930Z,9.35
2019-03-19T16:37:15.948Z,9.28
2019-03-19T16:39:46.032Z,9.33
2019-03-19T16:42:16.059Z,9.42
2019-03-19T16:44:46.159Z,9.29
2019-03-19T16:47:16.271Z,9.32
2019-03-19T16:49:46.344Z,9.31
2019-03-19T16:52:16.379Z,9.38
2019-03-19T16:54:46.511Z,9.02
2019-03-19T16:57:16.659Z,9.00
2019-03-19T16:59:46.997Z,9.36
2019-03-19T17:02:17.036Z,9.33
2019-03-19T17:04:47.115Z,9.17
2019-03-19T17:07:17.164Z,9.13
2019-03-19T17:09:47.246Z,9.15
2019-03-19T17:12:17.355Z,9.03
2019-03-19T17:14:47.439Z,9.00
2019-03-19T17:17:17.571Z,9.09
2019-03-19T17:19:47.634Z,9.10
2019-03-19T17:22:17.710Z,9.00
2019-03-19T17:24:47.877Z,9.17
2019-03-19T17:27:17.953Z,8.84
2019-03-19T17:29:48.097Z,8.62
2019-03-19T17:32:18.209Z,8.97
2019-03-19T17:34:48.251Z,9.05
2019-03-19T17:37:18.311Z,8.94
2019-03-19T17:39:48.380Z,9.03
2019-03-19T17:42:18.442Z,8.91
2019-03-19T17:44:48.511Z,8.95
2019-03-19T17:47:18.583Z,8.94
2019-03-19T17:49:48.639Z,9.03
2019-03-19T17:52:18.739Z,8.97
2019-03-19T17:54:48.831Z,8.72
2019-03-19T17:57:18.891Z,8.80
2019-03-19T17:59:48.933Z,8.77
2019-03-19T18:02:24.034Z,8.53
2019-03-19T18:04:50.788Z,8.53
2019-03-19T18:07:20.867Z,8.55
2019-03-19T18:09:50.921Z,8.46
2019-03-19T18:12:21.010Z,8.52
2019-03-19T18:14:51.042Z,8.37
2019-03-19T18:17:21.100Z,8.56
2019-03-19T18:19:51.153Z,8.55
2019-03-19T18:22:21.242Z,8.43
2019-03-19T18:24:51.282Z,8.53
2019-03-19T18:27:21.467Z,8.58
2019-03-19T18:29:51.543Z,8.38
2019-03-19T18:32:21.625Z,8.43
2019-03-19T18:34:51.659Z,8.48
2019-03-19T18:37:21.747Z,8.20
2019-03-19T18:39:51.797Z,8.34
2019-03-19T18:42:21.892Z,8.19
2019-03-19T18:44:51.923Z,8.24
2019-03-19T18:47:21.994Z,8.00
2019-03-19T18:49:52.078Z,8.10
2019-03-19T18:52:22.166Z,7.98
2019-03-19T18:54:52.254Z,8.00
2019-03-19T18:57:22.371Z,7.91
2019-03-19T18:59:52.433Z,7.75
2019-03-19T19:02:22.523Z,8.09
2019-03-19T19:04:52.670Z,7.96
2019-03-19T19:07:22.745Z,7.69
2019-03-19T19:09:52.901Z,7.61
2019-03-19T19:12:22.986Z,7.59
2019-03-19T19:14:53.032Z,7.42
2019-03-19T19:17:23.402Z,7.62
2019-03-19T19:19:53.515Z,7.36
2019-03-19T19:22:23.571Z,7.63
2019-03-19T19:24:53.604Z,7.51
2019-03-19T19:27:23.676Z,7.14
2019-03-19T19:29:53.722Z,7.37
2019-03-19T19:32:23.784Z,7.23
2019-03-19T19:34:53.819Z,7.31
2019-03-19T19:37:23.940Z,7.31
2019-03-19T19:39:53.984Z,7.16
2019-03-19T19:42:24.075Z,7.10
2019-03-19T19:44:54.111Z,6.91
2019-03-19T19:47:24.186Z,7.09
2019-03-19T19:49:54.234Z,6.97
2019-03-19T19:52:24.295Z,6.80
2019-03-19T19:54:54.452Z,7.05
2019-03-19T19:57:24.594Z,7.03
2019-03-19T19:59:54.658Z,6.90
2019-03-19T20:02:24.749Z,6.76
2019-03-19T20:05:02.601Z,6.57
2019-03-19T20:07:26.668Z,6.32
2019-03-19T20:09:56.781Z,6.40
2019-03-19T20:12:26.913Z,6.55
2019-03-19T20:15:00.071Z,6.48
2019-03-19T20:17:30.274Z,6.47
2019-03-19T20:20:00.499Z,6.59
2019-03-19T20:22:36.914Z,6.52
2019-03-19T20:25:07.176Z,6.44
2019-03-19T20:27:37.290Z,6.42
2019-03-19T20:30:09.074Z,6.38
2019-03-19T20:32:39.207Z,6.60
2019-03-19T20:35:09.808Z,6.55
2019-03-19T20:37:40.074Z,6.32
2019-03-19T20:40:10.872Z,6.53
2019-03-19T20:42:40.949Z,6.10
2019-03-19T20:45:11.834Z,5.90
2019-03-19T20:47:41.910Z,5.92
2019-03-19T20:50:14.761Z,6.07
2019-03-19T20:52:44.846Z,5.99
2019-03-19T20:55:14.892Z,6.06
2019-03-19T20:57:44.992Z,5.93
2019-03-19T21:00:16.171Z,5.81
2019-03-19T21:02:46.237Z,5.57
2019-03-19T21:05:16.283Z,5.79
2019-03-19T21:07:46.350Z,5.92
2019-03-19T21:10:17.889Z,6.06
2019-03-19T21:12:47.948Z,5.89
2019-03-19T21:15:19.649Z,5.81
2019-03-19T21:17:49.887Z,5.80
2019-03-19T21:20:19.972Z,5.86
2019-03-19T21:22:59.609Z,5.51
2019-03-19T21:25:29.671Z,5.76
2019-03-19T21:27:59.722Z,5.39
2019-03-19T21:30:29.784Z,5.50
2019-03-19T21:32:59.893Z,5.34
2019-03-19T21:35:30.045Z,5.45
2019-03-19T21:38:00.180Z,5.42
2019-03-19T21:40:30.222Z,5.55
2019-03-19T21:43:00.286Z,5.49
2019-03-19T21:45:30.363Z,5.35
2019-03-19T21:48:00.470Z,5.08
2019-03-19T21:50:30.519Z,5.51
2019-03-19T21:53:00.527Z,5.38
2019-03-19T21:55:30.610Z,5.46
2019-03-19T21:58:00.608Z,5.49
2019-03-19T22:00:30.651Z,4.94
2019-03-19T22:03:00.753Z,4.96
2019-03-19T22:05:30.801Z,5.00
2019-03-19T22:08:00.846Z,5.22
2019-03-19T22:10:30.912Z,4.97
2019-03-19T22:13:00.926Z,4.86
2019-03-19T22:15:30.983Z,4.56
2019-03-19T22:18:01.100Z,4.40
2019-03-19T22:20:31.203Z,4.85
2019-03-19T22:23:01.223Z,4.59
2019-03-19T22:25:31.266Z,4.93
2019-03-19T22:28:01.283Z,5.16
2019-03-19T22:30:31.380Z,4.96
2019-03-19T22:33:01.855Z,4.68
2019-03-19T22:35:31.891Z,4.81
2019-03-19T22:38:01.948Z,4.98
2019-03-19T22:40:32.358Z,4.99
2019-03-19T22:43:02.440Z,4.68
2019-03-19T22:45:32.543Z,4.69
2019-03-19T22:48:02.637Z,4.62
2019-03-19T22:50:32.751Z,4.51
2019-03-19T22:53:02.848Z,4.51
2019-03-19T22:55:32.965Z,4.70
2019-03-19T22:58:03.018Z,4.52
2019-03-19T23:00:44.632Z,4.70
2019-03-19T23:03:14.710Z,4.44
2019-03-19T23:05:44.719Z,4.56
2019-03-19T23:08:14.763Z,4.63
2019-03-19T23:10:44.814Z,4.63
2019-03-19T23:13:15.549Z,4.47
2019-03-19T23:15:45.594Z,4.32
2019-03-19T23:18:16.025Z,4.10
2019-03-19T23:20:46.129Z,4.38
2019-03-19T23:23:16.281Z,4.50
2019-03-19T23:25:46.365Z,3.95
2019-03-19T23:28:16.592Z,3.91
2019-03-19T23:30:46.735Z,4.01
2019-03-19T23:33:16.589Z,4.07
2019-03-19T23:35:46.637Z,4.13
2019-03-19T23:38:16.665Z,3.94
2019-03-19T23:40:46.686Z,4.29
2019-03-19T23:43:16.613Z,4.52
2019-03-19T23:45:46.599Z,4.48
2019-03-19T23:48:16.548Z,4.02
2019-03-19T23:50:46.527Z,3.74
2019-03-19T23:53:16.504Z,3.94
2019-03-19T23:55:46.513Z,4.31
2019-03-19T23:58:16.467Z,4.19
